Time;durP1;ratioP1;P1;durP2;ratioP2;P2;SDS_P1;SDS_P2;PMS_P1;PMS_P2;Temp;Humidity;BMP_temperature;BMP_pressure;BME280_temperature;BME280_humidity;BME280_pressure;Samples;Min_cycle;Max_cycle;Signal;HPM_P1;HPM_P2
2023/07/14 00:01:45;;;;;;;;;;;;;;;24.75;68.27;100401.66;7398872;19;1708;-42
2023/07/14 00:04:14;;;;;;;;;;;;;;;24.77;68.43;100382.53;7399262;19;1725;-42
2023/07/14 00:06:43;;;;;;;;;;;;;;;24.71;68.52;100384.13;7399528;19;1733;-42
2023/07/14 00:09:18;;;;;;;;;;;;;;;24.79;68.13;100354.31;7397367;19;1484;-42
2023/07/14 00:11:46;;;;;;;;;;;;;;;24.65;68.59;100367.78;7398668;19;1046;-42
2023/07/14 00:14:14;;;;;;;;;;;;;;;24.67;68.51;100361.19;7397846;19;1864;-41
2023/07/14 00:16:45;;;;;;;;;;;;;;;24.62;68.55;100366.28;7399803;19;2055;-42
2023/07/14 00:19:14;;;;;;;;;;;;;;;24.65;68.47;100357.81;7395821;19;1931;-42
2023/07/14 00:21:43;;;;;;;;;;;;;;;24.70;68.73;100349.97;7397605;19;1274;-42
2023/07/14 00:24:14;;;;;;;;;;;;;;;24.62;68.74;100355.47;7398765;19;1372;-42
2023/07/14 00:26:43;;;;;;;;;;;;;;;24.58;68.84;100360.41;7396997;19;1756;-42
2023/07/14 00:29:30;;;;;;;;;;;;;;;24.59;68.97;100375.59;7397980;19;1689;-42
2023/07/14 00:32:01;;;;;;;;;;;;;;;24.70;68.58;100366.22;7395840;19;1833;-42
2023/07/14 00:34:30;;;;;;;;;;;;;;;24.88;67.79;100359.63;7396757;19;1858;-42
2023/07/14 00:37:00;;;;;;;;;;;;;;;24.80;68.56;100358.66;7393680;19;1464;-42
2023/07/14 00:39:29;;;;;;;;;;;;;;;24.69;68.71;100369.94;7398904;19;1077;-42
2023/07/14 00:41:57;;;;;;;;;;;;;;;24.58;69.08;100378.50;7396545;19;1866;-43
2023/07/14 00:44:26;;;;;;;;;;;;;;;24.56;68.80;100380.53;7397013;19;1511;-42
2023/07/14 00:46:54;;;;;;;;;;;;;;;24.49;69.24;100371.44;7396890;19;1457;-42
2023/07/14 00:49:29;;;;;;;;;;;;;;;24.48;69.22;100372.47;7397268;19;1281;-42
2023/07/14 00:51:59;;;;;;;;;;;;;;;24.44;69.50;100385.50;7396628;19;1849;-42
2023/07/14 00:54:29;;;;;;;;;;;;;;;24.49;69.26;100379.53;7396791;19;1842;-42
2023/07/14 00:56:58;;;;;;;;;;;;;;;24.48;69.41;100378.69;7397247;19;1860;-42
2023/07/14 00:59:32;;;;;;;;;;;;;;;24.58;68.84;100390.13;7396934;19;1352;-42
2023/07/14 01:02:28;;;;;;;;;;;;;;;24.69;68.78;100396.13;7394593;19;2033;-42
2023/07/14 01:05:01;;;;;;;;;;;;;;;24.89;68.02;100397.31;7393711;19;1996;-42
2023/07/14 01:07:37;;;;;;;;;;;;;;;25.02;67.48;100402.09;7396372;19;1193;-42
2023/07/14 01:10:06;;;;;;;;;;;;;;;24.84;67.90;100390.78;7397656;19;1540;-42
2023/07/14 01:12:37;;;;;;;;;;;;;;;24.65;68.71;100401.09;7394978;19;1269;-42
2023/07/14 01:15:07;;;;;;;;;;;;;;;24.85;68.14;100390.59;7395602;19;1865;-42
2023/07/14 01:17:36;;;;;;;;;;;;;;;24.77;68.26;100410.44;7397710;19;1137;-42
2023/07/14 01:20:09;;;;;;;;;;;;;;;24.65;68.84;100392.09;7395509;19;1788;-42
2023/07/14 01:22:41;;;;;;;;;;;;;;;24.54;68.88;100375.31;7394569;19;1536;-42
2023/07/14 01:25:15;;;;;;;;;;;;;;;24.60;68.71;100389.97;7401025;19;1222;-42
2023/07/14 01:27:46;;;;;;;;;;;;;;;24.43;69.17;100394.59;7405431;19;1223;-42
2023/07/14 01:30:14;;;;;;;;;;;;;;;24.37;69.43;100403.44;7404553;19;1535;-42
2023/07/14 01:32:44;;;;;;;;;;;;;;;24.44;69.10;100403.56;7401084;19;1187;-42
2023/07/14 01:35:13;;;;;;;;;;;;;;;24.85;68.15;100393.31;7400900;19;1851;-42
2023/07/14 01:37:41;;;;;;;;;;;;;;;24.67;68.17;100411.69;7403553;19;1347;-42
2023/07/14 01:40:13;;;;;;;;;;;;;;;24.47;68.79;100408.59;7403974;19;1372;-42
2023/07/14 01:42:42;;;;;;;;;;;;;;;24.37;69.35;100419.66;7402575;19;1431;-42
2023/07/14 01:45:16;;;;;;;;;;;;;;;24.41;69.36;100420.97;7402056;19;1341;-42
2023/07/14 01:47:45;;;;;;;;;;;;;;;24.78;68.25;100422.91;7405199;19;1248;-42
2023/07/14 01:50:18;;;;;;;;;;;;;;;24.73;68.23;100419.06;7403320;19;1844;-42
2023/07/14 01:52:48;;;;;;;;;;;;;;;24.78;68.15;100432.91;7403867;19;1643;-42
2023/07/14 01:55:19;;;;;;;;;;;;;;;24.73;67.89;100446.97;7401075;19;1850;-42
2023/07/14 01:57:48;;;;;;;;;;;;;;;24.70;68.01;100451.91;7402635;19;1614;-42
2023/07/14 02:00:20;;;;;;;;;;;;;;;24.80;68.33;100457.91;7403905;19;1610;-42
2023/07/14 02:02:49;;;;;;;;;;;;;;;24.92;67.86;100483.50;7402939;19;1491;-42
2023/07/14 02:05:20;;;;;;;;;;;;;;;24.65;68.23;100465.97;7403731;19;1754;-42
2023/07/14 02:07:49;;;;;;;;;;;;;;;24.63;68.69;100468.00;7401348;19;1432;-42
2023/07/14 02:10:18;;;;;;;;;;;;;;;24.69;68.79;100475.41;7402684;19;1290;-42
2023/07/14 02:12:47;;;;;;;;;;;;;;;24.59;68.91;100472.06;7403866;19;1620;-42
2023/07/14 02:15:17;;;;;;;;;;;;;;;24.39;69.84;100475.22;7401281;19;1852;-42
2023/07/14 02:17:49;;;;;;;;;;;;;;;24.54;69.37;100472.63;7403734;19;1053;-42
2023/07/14 02:20:20;;;;;;;;;;;;;;;24.42;69.20;100485.66;7401945;19;1348;-42
2023/07/14 02:22:49;;;;;;;;;;;;;;;24.70;68.09;100478.94;7401814;19;1657;-42
2023/07/14 02:25:20;;;;;;;;;;;;;;;24.73;67.67;100465.03;7400035;19;1023;-42
2023/07/14 02:27:48;;;;;;;;;;;;;;;24.74;67.58;100469.44;7402429;19;1782;-42
2023/07/14 02:30:18;;;;;;;;;;;;;;;24.80;67.76;100480.38;7402649;19;1855;-42
2023/07/14 02:32:51;;;;;;;;;;;;;;;24.86;67.33;100481.50;7399749;19;1535;-42
2023/07/14 02:35:23;;;;;;;;;;;;;;;24.78;67.35;100504.03;7399046;19;1855;-42
2023/07/14 02:38:03;;;;;;;;;;;;;;;24.87;67.18;100507.56;7399514;19;1531;-42
2023/07/14 02:40:34;;;;;;;;;;;;;;;24.92;67.32;100513.25;7401807;19;1690;-42
2023/07/14 02:43:05;;;;;;;;;;;;;;;24.94;66.93;100540.94;7402198;19;1535;-42
2023/07/14 02:45:35;;;;;;;;;;;;;;;24.77;67.33;100544.78;7401228;19;1469;-42
2023/07/14 02:48:06;;;;;;;;;;;;;;;24.81;67.57;100565.06;7400522;19;1223;-42
2023/07/14 02:50:35;;;;;;;;;;;;;;;24.91;67.35;100551.28;7401438;19;1605;-42
2023/07/14 02:53:04;;;;;;;;;;;;;;;24.71;68.09;100537.38;7403127;19;1697;-42
2023/07/14 02:55:32;;;;;;;;;;;;;;;24.73;68.12;100559.69;7400479;19;1847;-42
2023/07/14 02:58:00;;;;;;;;;;;;;;;24.68;68.09;100568.34;7400301;19;1570;-42
2023/07/14 03:00:28;;;;;;;;;;;;;;;24.81;67.67;100556.97;7400742;19;1511;-42
2023/07/14 03:02:57;;;;;;;;;;;;;;;24.80;67.72;100555.25;7400627;19;1530;-42
2023/07/14 03:05:28;;;;;;;;;;;;;;;24.64;67.90;100533.75;7401150;19;1800;-42
2023/07/14 03:07:56;;;;;;;;;;;;;;;24.61;66.97;100554.69;7399554;19;1244;-42
2023/07/14 03:10:24;;;;;;;;;;;;;;;24.70;67.54;100565.47;7399980;19;1553;-42
2023/07/14 03:12:53;;;;;;;;;;;;;;;24.65;67.89;100554.34;7401522;19;1551;-42
2023/07/14 03:15:22;;;;;;;;;;;;;;;24.65;68.36;100557.91;7398477;19;1852;-42
2023/07/14 03:17:50;;;;;;;;;;;;;;;24.79;67.79;100546.31;7401124;19;1531;-42
2023/07/14 03:20:18;;;;;;;;;;;;;;;24.94;67.19;100581.53;7399351;19;1488;-42
2023/07/14 03:22:49;;;;;;;;;;;;;;;24.79;67.30;100596.88;7399170;19;1455;-42
2023/07/14 03:25:17;;;;;;;;;;;;;;;24.72;67.66;100610.22;7399054;19;1227;-43
2023/07/14 03:27:46;;;;;;;;;;;;;;;24.71;67.75;100611.25;7400112;19;1700;-42
2023/07/14 03:30:15;;;;;;;;;;;;;;;24.72;67.79;100601.28;7399850;19;1519;-42
2023/07/14 03:32:43;;;;;;;;;;;;;;;24.93;67.24;100609.63;7397892;19;1488;-42
2023/07/14 03:35:11;;;;;;;;;;;;;;;24.95;67.44;100610.28;7398526;19;1845;-42
2023/07/14 03:37:41;;;;;;;;;;;;;;;24.82;67.97;100620.81;7400721;19;1400;-42
2023/07/14 03:40:12;;;;;;;;;;;;;;;24.71;68.48;100615.81;7400652;19;1728;-42
2023/07/14 03:42:43;;;;;;;;;;;;;;;24.82;67.85;100634.34;7397869;19;3383;-42
2023/07/14 03:45:12;;;;;;;;;;;;;;;24.73;68.50;100663.31;7399159;19;1722;-42
2023/07/14 03:47:40;;;;;;;;;;;;;;;24.66;68.62;100677.72;7399726;19;1166;-42
2023/07/14 03:50:11;;;;;;;;;;;;;;;24.68;68.59;100691.91;7398399;19;1946;-42
2023/07/14 03:52:41;;;;;;;;;;;;;;;24.68;68.99;100708.13;7398609;19;1697;-42
2023/07/14 03:55:13;;;;;;;;;;;;;;;24.73;68.81;100716.53;7397502;19;1856;-42
2023/07/14 03:57:41;;;;;;;;;;;;;;;24.80;68.27;100725.66;7398539;19;1259;-42
2023/07/14 04:00:16;;;;;;;;;;;;;;;24.88;68.31;100741.00;7396106;19;1311;-42
2023/07/14 04:02:44;;;;;;;;;;;;;;;24.73;68.39;100776.03;7396918;19;1143;-42
2023/07/14 04:05:13;;;;;;;;;;;;;;;24.59;69.43;100808.19;7396642;19;1281;-42
2023/07/14 04:07:43;;;;;;;;;;;;;;;24.78;68.46;100855.63;7397254;19;1461;-42
2023/07/14 04:10:14;;;;;;;;;;;;;;;24.89;68.77;100883.31;7395822;19;1610;-42
2023/07/14 04:12:42;;;;;;;;;;;;;;;24.86;69.08;100933.22;7396455;19;1109;-42
2023/07/14 04:15:11;;;;;;;;;;;;;;;24.88;69.05;100979.88;7396580;19;1845;-42
2023/07/14 04:17:39;;;;;;;;;;;;;;;24.87;67.78;100934.06;7396904;19;1161;-42
2023/07/14 04:20:08;;;;;;;;;;;;;;;24.78;67.93;100820.47;7393923;19;1367;-42
2023/07/14 04:22:36;;;;;;;;;;;;;;;24.66;68.11;100794.81;7394950;19;1550;-41
2023/07/14 04:25:05;;;;;;;;;;;;;;;24.77;67.55;100826.91;7397543;19;1263;-42
2023/07/14 04:27:36;;;;;;;;;;;;;;;24.74;67.75;100848.88;7397564;19;1463;-42
2023/07/14 04:30:05;;;;;;;;;;;;;;;24.75;66.86;100817.25;7398221;19;1660;-42
2023/07/14 04:32:33;;;;;;;;;;;;;;;24.70;67.72;100809.69;7395092;19;1363;-42
2023/07/14 04:35:01;;;;;;;;;;;;;;;24.69;66.36;100834.19;7395787;19;1850;-42
2023/07/14 04:37:29;;;;;;;;;;;;;;;24.79;63.77;100845.69;7397434;19;1859;-42
2023/07/14 04:39:58;;;;;;;;;;;;;;;24.81;63.14;100822.00;7396940;19;1733;-42
2023/07/14 04:42:27;;;;;;;;;;;;;;;24.97;62.36;100816.53;7396855;19;1542;-42
2023/07/14 04:44:58;;;;;;;;;;;;;;;25.10;62.48;100843.03;7397183;19;1176;-42
2023/07/14 04:47:26;;;;;;;;;;;;;;;25.04;60.94;100859.13;7396440;19;1617;-42
2023/07/14 04:49:54;;;;;;;;;;;;;;;25.12;60.65;100832.03;7396416;19;1689;-42
2023/07/14 04:52:22;;;;;;;;;;;;;;;25.18;60.07;100861.13;7397903;19;1570;-42
2023/07/14 04:54:51;;;;;;;;;;;;;;;25.17;59.73;100859.44;7397435;19;1852;-42
2023/07/14 04:57:17;;;;;;;;;;;;;;;25.12;59.39;100848.28;7395142;19;1542;-42
2023/07/14 04:59:45;;;;;;;;;;;;;;;25.07;59.94;100858.78;7390736;19;1408;-42
2023/07/14 05:02:17;;;;;;;;;;;;;;;25.02;60.61;100873.66;7394644;19;1523;-42
2023/07/14 05:04:46;;;;;;;;;;;;;;;25.20;60.25;100878.84;7393322;19;1487;-42
2023/07/14 05:07:17;;;;;;;;;;;;;;;25.04;60.24;100859.13;7392893;19;1218;-42
2023/07/14 05:09:45;;;;;;;;;;;;;;;25.08;60.46;100852.34;7394803;19;1511;-42
2023/07/14 05:12:13;;;;;;;;;;;;;;;25.09;62.03;100872.97;7394344;19;1602;-42
2023/07/14 05:14:42;;;;;;;;;;;;;;;25.15;61.71;100862.31;7395051;19;1372;-42
2023/07/14 05:17:10;;;;;;;;;;;;;;;25.15;61.79;100847.94;7392117;19;1853;-42
2023/07/14 05:19:41;;;;;;;;;;;;;;;25.02;61.53;100843.91;7394963;19;1542;-42
2023/07/14 05:22:09;;;;;;;;;;;;;;;24.97;61.45;100881.47;7391910;19;1197;-42
2023/07/14 05:24:37;;;;;;;;;;;;;;;24.98;62.29;100866.91;7392586;19;1173;-42
2023/07/14 05:27:06;;;;;;;;;;;;;;;24.95;61.83;100853.75;7390570;19;1835;-42
2023/07/14 05:29:34;;;;;;;;;;;;;;;24.96;62.72;100857.28;7390299;19;1425;-42
2023/07/14 05:32:02;;;;;;;;;;;;;;;24.95;61.99;100853.75;7389765;19;1791;-42
2023/07/14 05:34:31;;;;;;;;;;;;;;;25.03;62.10;100877.25;7390688;19;1264;-42
2023/07/14 05:37:02;;;;;;;;;;;;;;;25.04;62.42;100869.97;7390441;19;1851;-42
2023/07/14 05:39:31;;;;;;;;;;;;;;;24.56;62.57;100842.81;7396406;19;1149;-42
2023/07/14 05:42:01;;;;;;;;;;;;;;;25.07;62.51;100893.94;7395366;19;1562;-42
2023/07/14 05:44:30;;;;;;;;;;;;;;;25.11;62.66;100895.28;7395866;19;1499;-42
2023/07/14 05:46:59;;;;;;;;;;;;;;;25.12;62.77;100897.81;7395505;19;1262;-42
2023/07/14 05:49:27;;;;;;;;;;;;;;;25.09;62.63;100900.03;7392050;19;1431;-42
2023/07/14 05:51:56;;;;;;;;;;;;;;;25.16;62.97;100884.81;7393696;19;1309;-42
2023/07/14 05:54:27;;;;;;;;;;;;;;;25.09;62.89;100857.59;7396214;19;1153;-42
2023/07/14 05:56:55;;;;;;;;;;;;;;;25.07;63.17;100853.34;7392291;19;1842;-42
2023/07/14 05:59:24;;;;;;;;;;;;;;;25.13;63.43;100861.66;7393862;19;1412;-42
2023/07/14 06:01:52;;;;;;;;;;;;;;;25.09;62.02;100872.97;7391138;19;1662;-44
2023/07/14 06:04:20;;;;;;;;;;;;;;;25.24;61.74;100855.03;7393476;19;1535;-44
2023/07/14 06:06:49;;;;;;;;;;;;;;;25.16;62.24;100857.75;7393408;19;1631;-44
2023/07/14 06:09:18;;;;;;;;;;;;;;;25.16;62.92;100865.84;7394665;19;1507;-42
2023/07/14 06:11:49;;;;;;;;;;;;;;;25.35;62.87;100878.19;7395342;19;1359;-42
2023/07/14 06:14:18;;;;;;;;;;;;;;;25.25;63.16;100877.53;7401038;19;1097;-42
2023/07/14 06:16:46;;;;;;;;;;;;;;;25.36;63.22;100883.41;7398150;19;1853;-42
2023/07/14 06:19:14;;;;;;;;;;;;;;;25.28;63.21;100874.47;7402058;19;1506;-42
2023/07/14 06:21:42;;;;;;;;;;;;;;;25.40;63.00;100875.78;7401657;19;1312;-43
2023/07/14 06:24:11;;;;;;;;;;;;;;;25.44;62.97;100869.00;7401968;19;1183;-42
2023/07/14 06:26:39;;;;;;;;;;;;;;;25.52;62.83;100877.06;7399099;19;1499;-42
2023/07/14 06:29:10;;;;;;;;;;;;;;;25.57;62.95;100879.28;7401657;19;1555;-42
2023/07/14 06:31:38;;;;;;;;;;;;;;;25.58;62.97;100878.25;7400684;19;1523;-42
2023/07/14 06:34:07;;;;;;;;;;;;;;;25.40;63.50;100870.38;7399744;19;1459;-42
2023/07/14 06:36:35;;;;;;;;;;;;;;;25.43;63.89;100858.34;7394214;19;1869;-42
2023/07/14 06:39:03;;;;;;;;;;;;;;;25.26;64.35;100868.41;7399483;19;1399;-42
2023/07/14 06:41:32;;;;;;;;;;;;;;;25.24;64.39;100863.16;7398376;19;1674;-42
2023/07/14 06:44:01;;;;;;;;;;;;;;;25.24;64.40;100865.84;7398816;19;1839;-42
2023/07/14 06:46:32;;;;;;;;;;;;;;;25.28;64.36;100872.59;7400360;19;1231;-42
2023/07/14 06:49:03;;;;;;;;;;;;;;;25.37;64.24;100876.16;7400516;19;1599;-42
2023/07/14 06:51:31;;;;;;;;;;;;;;;25.33;64.48;100862.13;7400634;19;1704;-42
2023/07/14 06:53:59;;;;;;;;;;;;;;;25.34;64.51;100863.78;7399898;19;1633;-42
2023/07/14 06:56:27;;;;;;;;;;;;;;;25.32;64.56;100851.47;7399084;19;1850;-42
2023/07/14 06:58:56;;;;;;;;;;;;;;;25.32;64.55;100846.88;7399603;19;1249;-42
2023/07/14 07:01:25;;;;;;;;;;;;;;;25.37;64.32;100833.66;7399985;19;1554;-42
2023/07/14 07:03:55;;;;;;;;;;;;;;;25.40;64.23;100846.00;7396641;19;1669;-42
2023/07/14 07:06:24;;;;;;;;;;;;;;;25.37;64.62;100857.19;7397794;19;1412;-42
2023/07/14 07:08:52;;;;;;;;;;;;;;;25.42;64.70;100843.13;7396539;19;1236;-42
2023/07/14 07:11:21;;;;;;;;;;;;;;;25.40;64.58;100841.44;7289097;19;13509;-42
2023/07/14 07:13:49;;;;;;;;;;;;;;;25.40;64.72;100849.53;7398153;19;1814;-42
2023/07/14 07:16:17;;;;;;;;;;;;;;;24.92;64.87;100754.00;7399011;19;1857;-42
2023/07/14 07:18:46;;;;;;;;;;;;;;;25.45;64.72;100856.31;7396044;19;1186;-42
2023/07/14 07:21:17;;;;;;;;;;;;;;;25.42;64.73;100837.72;7396228;19;1434;-42
2023/07/14 07:23:45;;;;;;;;;;;;;;;25.37;65.21;100839.09;7397160;19;964;-42
2023/07/14 07:26:13;;;;;;;;;;;;;;;25.39;64.92;100853.28;7398557;19;1946;-42
2023/07/14 07:28:42;;;;;;;;;;;;;;;25.40;65.13;100833.31;7396475;19;1969;-42
2023/07/14 07:31:11;;;;;;;;;;;;;;;25.45;64.90;100840.09;7395448;19;1392;-42
2023/07/14 07:33:40;;;;;;;;;;;;;;;25.42;64.85;100824.19;7397432;19;1543;-42
2023/07/14 07:36:14;;;;;;;;;;;;;;;25.42;65.07;100822.31;7397105;19;1869;-42
2023/07/14 07:38:47;;;;;;;;;;;;;;;25.38;65.24;100843.47;7398136;19;1828;-42
2023/07/14 07:41:16;;;;;;;;;;;;;;;25.45;65.11;100848.19;7397346;19;1522;-42
2023/07/14 07:43:44;;;;;;;;;;;;;;;25.57;64.87;100844.06;7393817;19;1356;-42
2023/07/14 07:46:13;;;;;;;;;;;;;;;25.48;65.20;100839.72;7394757;19;1621;-42
2023/07/14 07:48:42;;;;;;;;;;;;;;;25.43;65.46;100852.91;7394440;19;1238;-42
2023/07/14 07:51:11;;;;;;;;;;;;;;;25.38;65.67;100850.75;7399776;19;1008;-42
2023/07/14 07:53:39;;;;;;;;;;;;;;;25.38;65.69;100851.59;7397560;19;1919;-42
2023/07/14 07:56:11;;;;;;;;;;;;;;;25.37;65.78;100851.78;7397068;19;1849;-42
2023/07/14 07:58:39;;;;;;;;;;;;;;;25.37;65.72;100844.50;7397966;19;1294;-42
2023/07/14 08:01:09;;;;;;;;;;;;;;;25.24;66.10;100843.38;7397850;19;1166;-42
2023/07/14 08:03:39;;;;;;;;;;;;;;;25.32;66.36;100856.88;7393086;19;1712;-41
2023/07/14 08:06:08;;;;;;;;;;;;;;;25.38;66.41;100843.47;7398282;19;1164;-42
2023/07/14 08:08:36;;;;;;;;;;;;;;;25.34;66.72;100839.44;7393393;19;1484;-42
2023/07/14 08:11:05;;;;;;;;;;;;;;;24.95;68.57;100834.81;7394771;19;1727;-42
2023/07/14 08:13:36;;;;;;;;;;;;;;;24.42;67.38;100849.72;7395199;19;1539;-42
2023/07/14 08:16:04;;;;;;;;;;;;;;;24.10;67.19;100861.38;7393989;19;1857;-42
2023/07/14 08:18:32;;;;;;;;;;;;;;;24.25;66.34;100848.03;7397421;19;1295;-42
2023/07/14 08:21:02;;;;;;;;;;;;;;;24.41;65.53;100862.41;7396793;19;1934;-42
2023/07/14 08:23:30;;;;;;;;;;;;;;;24.57;65.93;100858.88;7394747;19;1539;-42
2023/07/14 08:26:00;;;;;;;;;;;;;;;24.40;66.96;100868.81;7396397;19;1550;-42
2023/07/14 08:28:29;;;;;;;;;;;;;;;24.40;67.38;100857.16;7397510;19;1050;-42
2023/07/14 08:31:01;;;;;;;;;;;;;;;24.37;67.52;100852.94;7398201;19;1895;-42
2023/07/14 08:33:30;;;;;;;;;;;;;;;24.37;67.70;100862.88;7394158;19;1554;-42
2023/07/14 08:36:00;;;;;;;;;;;;;;;24.32;68.12;100868.81;7396014;19;1552;-43
2023/07/14 08:38:28;;;;;;;;;;;;;;;24.37;68.33;100857.50;7396635;19;1721;-42
2023/07/14 08:41:00;;;;;;;;;;;;;;;24.44;68.24;100872.03;7396312;19;1742;-42
2023/07/14 08:43:33;;;;;;;;;;;;;;;24.39;68.66;100847.34;7395158;19;1989;-43
2023/07/14 08:46:08;;;;;;;;;;;;;;;24.38;68.81;100860.03;7396021;19;1255;-42
2023/07/14 08:48:37;;;;;;;;;;;;;;;24.39;68.83;100831.13;6363589;19;10000680;-46
2023/07/14 08:51:16;;;;;;;;;;;;;;;24.24;69.97;100847.19;7389615;19;1842;-45
2023/07/14 08:53:47;;;;;;;;;;;;;;;24.30;69.14;100841.13;7393227;19;1589;-44
2023/07/14 08:56:16;;;;;;;;;;;;;;;24.41;67.22;100837.22;7393944;19;1834;-44
2023/07/14 08:58:46;;;;;;;;;;;;;;;24.46;66.55;100829.44;7395262;19;1692;-45
2023/07/14 09:01:23;;;;;;;;;;;;;;;24.46;67.56;100824.03;7396212;19;1484;-45
2023/07/14 09:03:54;;;;;;;;;;;;;;;24.42;67.89;100817.28;7395640;19;1729;-45
2023/07/14 09:06:27;;;;;;;;;;;;;;;24.48;67.92;100827.41;7396801;19;1137;-45
2023/07/14 09:08:55;;;;;;;;;;;;;;;24.51;68.24;100815.44;7395695;19;1404;-45
2023/07/14 09:11:29;;;;;;;;;;;;;;;24.50;68.49;100816.44;7395528;19;1943;-45
2023/07/14 09:14:02;;;;;;;;;;;;;;;24.48;68.75;100810.38;7395678;19;1907;-45
2023/07/14 09:16:37;;;;;;;;;;;;;;;24.38;69.09;100805.13;7395244;19;1859;-45
2023/07/14 09:19:09;;;;;;;;;;;;;;;24.45;69.18;100805.28;7392938;19;1538;-45
2023/07/14 09:21:40;;;;;;;;;;;;;;;24.42;69.13;100801.06;7394609;19;1515;-44
2023/07/14 09:24:17;;;;;;;;;;;;;;;24.51;69.24;100789.28;7395144;19;1316;-45
2023/07/14 09:26:47;;;;;;;;;;;;;;;24.57;69.19;100799.41;7396005;19;1468;-45
2023/07/14 09:29:18;;;;;;;;;;;;;;;24.55;69.49;100798.72;7395996;19;1562;-44
2023/07/14 09:31:51;;;;;;;;;;;;;;;24.54;68.16;100791.63;7394785;19;1388;-44
2023/07/14 09:34:28;;;;;;;;;;;;;;;24.48;67.38;100786.88;7394271;19;1554;-44
2023/07/14 09:36:57;;;;;;;;;;;;;;;24.47;67.53;100787.03;7394632;19;1841;-44
2023/07/14 09:39:29;;;;;;;;;;;;;;;24.54;68.19;100788.91;7395935;19;1069;-44
2023/07/14 09:42:00;;;;;;;;;;;;;;;24.60;68.20;100785.53;7394993;19;1935;-46
2023/07/14 09:44:29;;;;;;;;;;;;;;;24.53;68.57;100787.25;7393214;19;1533;-49
2023/07/14 09:47:02;;;;;;;;;;;;;;;24.46;69.21;100786.19;7399642;19;1534;-45
2023/07/14 09:49:36;;;;;;;;;;;;;;;24.44;69.54;100777.41;7399050;19;1554;-45
2023/07/14 09:52:15;;;;;;;;;;;;;;;24.55;69.68;100774.41;7402531;19;1163;-45
2023/07/14 09:54:52;;;;;;;;;;;;;;;24.49;70.01;100780.47;7402800;19;1605;-45
2023/07/14 09:57:22;;;;;;;;;;;;;;;24.45;70.51;100786.38;7400289;19;1850;-45
2023/07/14 09:59:56;;;;;;;;;;;;;;;24.53;70.38;100781.84;7401005;19;1194;-45
2023/07/14 10:02:32;;;;;;;;;;;;;;;24.56;70.41;100780.66;7402138;19;1646;-45
2023/07/14 10:05:03;;;;;;;;;;;;;;;24.53;70.67;100771.03;7402409;19;1004;-46
2023/07/14 10:07:40;;;;;;;;;;;;;;;24.45;71.43;100768.28;7400541;19;1338;-45
2023/07/14 10:10:14;;;;;;;;;;;;;;;24.32;69.71;100768.81;7401306;19;1267;-45
2023/07/14 10:12:49;;;;;;;;;;;;;;;24.32;68.83;100773.38;7401475;19;1512;-45
2023/07/14 10:15:30;;;;;;;;;;;;;;;24.40;69.51;100765.25;7401997;19;1487;-45
2023/07/14 10:18:02;;;;;;;;;;;;;;;24.31;70.31;100771.69;7400443;19;1854;-45
2023/07/14 10:20:31;;;;;;;;;;;;;;;24.30;70.52;100753.78;7399256;19;1859;-46
2023/07/14 10:23:00;;;;;;;;;;;;;;;24.40;70.51;100762.56;7400936;19;1555;-45
2023/07/14 10:25:29;;;;;;;;;;;;;;;24.37;70.74;100761.06;7403032;19;1258;-45
2023/07/14 10:27:59;;;;;;;;;;;;;;;24.36;71.09;100753.09;7401994;19;1813;-45
2023/07/14 10:30:41;;;;;;;;;;;;;;;24.37;70.99;100760.19;7401089;19;1680;-45
2023/07/14 10:33:17;;;;;;;;;;;;;;;24.41;71.67;100751.59;7398087;19;1316;-45
2023/07/14 10:35:46;;;;;;;;;;;;;;;24.40;72.08;100749.88;7400658;19;1613;-45
2023/07/14 10:38:16;;;;;;;;;;;;;;;24.42;72.19;100761.38;7399798;19;1842;-45
2023/07/14 10:40:49;;;;;;;;;;;;;;;24.57;72.09;100747.16;7399158;19;1609;-45
2023/07/14 10:43:21;;;;;;;;;;;;;;;24.14;72.31;100671.72;7399739;19;1552;-45
2023/07/14 10:45:52;;;;;;;;;;;;;;;24.55;72.32;100747.38;7400253;19;1605;-45
2023/07/14 10:48:27;;;;;;;;;;;;;;;24.51;70.38;100739.75;7400734;19;1036;-45
2023/07/14 10:50:59;;;;;;;;;;;;;;;24.41;69.74;100748.88;7400044;19;1594;-45
2023/07/14 10:53:31;;;;;;;;;;;;;;;24.32;71.06;100732.84;7400048;19;1520;-45
2023/07/14 10:56:02;;;;;;;;;;;;;;;24.44;71.03;100742.28;7399386;19;1518;-44
2023/07/14 10:58:35;;;;;;;;;;;;;;;24.45;71.08;100743.94;7394502;19;1861;-45
2023/07/14 11:01:04;;;;;;;;;;;;;;;24.52;71.27;100739.59;7399979;19;1623;-45
2023/07/14 11:03:39;;;;;;;;;;;;;;;24.54;71.33;100729.44;7400079;19;1063;-45
2023/07/14 11:06:13;;;;;;;;;;;;;;;24.44;72.20;100739.56;7399706;19;1533;-45
2023/07/14 11:08:41;;;;;;;;;;;;;;;24.52;71.95;100739.59;7399431;19;1582;-45
2023/07/14 11:11:12;;;;;;;;;;;;;;;24.50;72.54;100738.06;7398952;19;1271;-45
2023/07/14 11:13:46;;;;;;;;;;;;;;;24.54;72.75;100732.16;7399496;19;1437;-46
2023/07/14 11:16:16;;;;;;;;;;;;;;;24.50;73.28;100730.81;7400955;19;1546;-45
2023/07/14 11:18:51;;;;;;;;;;;;;;;24.58;73.06;100747.00;7398877;19;1853;-44
2023/07/14 11:21:24;;;;;;;;;;;;;;;24.46;73.66;100723.19;7399322;19;1617;-46
2023/07/14 11:23:56;;;;;;;;;;;;;;;24.28;73.39;100720.69;7400289;19;1039;-46
2023/07/14 11:26:27;;;;;;;;;;;;;;;24.34;71.41;100731.66;7400496;19;1686;-45
2023/07/14 11:29:00;;;;;;;;;;;;;;;24.40;71.33;100722.00;7399814;19;1548;-44
2023/07/14 11:31:30;;;;;;;;;;;;;;;24.36;71.98;100712.56;7398140;19;1348;-45
2023/07/14 11:34:14;;;;;;;;;;;;;;;24.41;72.20;100721.84;7399072;19;1525;-45
2023/07/14 11:36:47;;;;;;;;;;;;;;;24.53;71.96;100727.78;7399691;19;1166;-45
2023/07/14 11:39:24;;;;;;;;;;;;;;;24.46;72.70;100704.28;7398321;19;2339;-45
2023/07/14 11:41:52;;;;;;;;;;;;;;;24.53;72.55;100716.97;7398432;19;1935;-45
2023/07/14 11:44:22;;;;;;;;;;;;;;;24.59;72.79;100721.66;7397668;19;1950;-45
2023/07/14 11:46:51;;;;;;;;;;;;;;;24.60;73.22;100709.81;7398024;19;1612;-45
2023/07/14 11:49:28;;;;;;;;;;;;;;;24.53;73.63;100706.16;7398884;19;1307;-44
2023/07/14 11:51:58;;;;;;;;;;;;;;;24.42;73.79;100714.56;7399408;19;1587;-45
2023/07/14 11:54:27;;;;;;;;;;;;;;;24.25;74.33;100685.91;7399643;19;1333;-44
2023/07/14 11:57:03;;;;;;;;;;;;;;;24.31;74.53;100717.63;7396528;19;1487;-44
2023/07/14 11:59:32;;;;;;;;;;;;;;;24.32;74.41;100698.56;7392653;19;1857;-45
2023/07/14 12:02:19;;;;;;;;;;;;;;;24.24;72.98;100703.97;7392026;19;1240;-45
2023/07/14 12:04:59;;;;;;;;;;;;;;;24.02;73.04;100700.97;7396818;19;1613;-44
2023/07/14 12:07:27;;;;;;;;;;;;;;;23.96;72.30;100700.81;7394280;19;1567;-44
2023/07/14 12:10:04;;;;;;;;;;;;;;;23.91;71.98;100684.25;7396095;19;1367;-44
2023/07/14 12:12:33;;;;;;;;;;;;;;;23.89;70.72;100691.69;7396321;19;1394;-44
2023/07/14 12:15:02;;;;;;;;;;;;;;;23.90;70.70;100693.38;7395181;19;1541;-42
2023/07/14 12:17:43;;;;;;;;;;;;;;;24.04;70.13;100681.88;7388940;19;1869;-42
2023/07/14 12:20:28;;;;;;;;;;;;;;;24.12;69.38;100678.34;7393145;19;1670;-42
2023/07/14 12:23:10;;;;;;;;;;;;;;;23.45;69.79;100609.16;7394051;19;1686;-41
2023/07/14 12:25:41;;;;;;;;;;;;;;;24.01;68.94;100674.13;7396277;19;1259;-42
2023/07/14 12:28:14;;;;;;;;;;;;;;;23.99;68.92;100681.53;7394550;19;1940;-41
2023/07/14 12:30:49;;;;;;;;;;;;;;;23.87;68.67;100672.09;7392607;19;1581;-41
2023/07/14 12:33:19;;;;;;;;;;;;;;;23.98;67.61;100690.69;7390257;19;1789;-42
2023/07/14 12:35:51;;;;;;;;;;;;;;;23.94;67.30;100657.75;7391688;19;1511;-42
2023/07/14 12:38:21;;;;;;;;;;;;;;;24.02;66.40;100659.59;7391561;19;1855;-42
2023/07/14 12:40:50;;;;;;;;;;;;;;;23.98;66.21;100664.50;7392405;19;1664;-42
2023/07/14 12:43:27;;;;;;;;;;;;;;;23.88;66.25;100654.91;7391626;19;1282;-42
2023/07/14 12:45:56;;;;;;;;;;;;;;;23.89;65.83;100657.41;7392273;19;1251;-42
2023/07/14 12:48:32;;;;;;;;;;;;;;;23.85;65.57;100657.94;7394092;19;1110;-41
2023/07/14 12:51:17;;;;;;;;;;;;;;;23.75;65.54;100647.28;7393375;19;1824;-41
2023/07/14 12:53:51;;;;;;;;;;;;;;;23.79;65.33;100654.88;7394025;19;1034;-42
2023/07/14 12:56:19;;;;;;;;;;;;;;;23.79;64.76;100641.38;7397544;19;1570;-42
2023/07/14 12:58:47;;;;;;;;;;;;;;;23.76;64.75;100649.81;7395020;19;1939;-42
2023/07/14 13:01:19;;;;;;;;;;;;;;;23.72;64.60;100643.06;7396653;19;1495;-42
2023/07/14 13:03:47;;;;;;;;;;;;;;;23.72;64.53;100651.16;7396083;19;1297;-41